Terminal Aerodrome Forecast
Issued by NWS

Home | Current Version | Previous Version | Text Only | Print | Product List | Glossary On
Versions: 1 2 3 4 5 6 7 8 9 10 11 12 13 14 15 16 17 18 19
000
FTUS41 KRNK 281137
TAFBCB
TAF
KBCB 281137Z 2812/2912 VRB03KT P6SM SCT080
     FM281600 VRB03KT P6SM BKN045
      TEMPO 2819/2821 2SM TSRA OVC025CB
     FM290200 21004KT P6SM BKN080
     FM291100 29006KT P6SM BKN035=

USA.gov is the U.S. government's official web portal to all federal, state and local government web resources and services.